sensor_id;sensor_type;location;lat;lon;timestamp;P1;durP1;ratioP1;P2;durP2;ratioP2
41043;SDS011;51680;49.806;18.774;2022-12-05T00:02:27;478.15;;;42.90;;
41043;SDS011;51680;49.806;18.774;2022-12-05T00:05:49;242.88;;;31.50;;
41043;SDS011;51680;49.806;18.774;2022-12-05T00:09:11;289.73;;;29.67;;
41043;SDS011;51680;49.806;18.774;2022-12-05T00:12:33;284.50;;;31.27;;
41043;SDS011;51680;49.806;18.774;2022-12-05T00:15:56;389.92;;;39.30;;
41043;SDS011;51680;49.806;18.774;2022-12-05T00:19:19;210.52;;;27.27;;
41043;SDS011;51680;49.806;18.774;2022-12-05T00:22:42;253.93;;;28.75;;
41043;SDS011;51680;49.806;18.774;2022-12-05T00:26:03;613.08;;;43.70;;
41043;SDS011;51680;49.806;18.774;2022-12-05T00:29:26;693.42;;;43.22;;
41043;SDS011;51680;49.806;18.774;2022-12-05T00:32:47;48.58;;;14.60;;
41043;SDS011;51680;49.806;18.774;2022-12-05T00:36:11;713.72;;;45.70;;
41043;SDS011;51680;49.806;18.774;2022-12-05T00:39:35;515.25;;;40.00;;
41043;SDS011;51680;49.806;18.774;2022-12-05T00:42:57;683.22;;;44.55;;
41043;SDS011;51680;49.806;18.774;2022-12-05T00:46:20;370.90;;;35.70;;
41043;SDS011;51680;49.806;18.774;2022-12-05T00:53:06;435.15;;;36.75;;
41043;SDS011;51680;49.806;18.774;2022-12-05T00:56:28;470.15;;;39.38;;
41043;SDS011;51680;49.806;18.774;2022-12-05T00:59:51;479.05;;;38.95;;
41043;SDS011;51680;49.806;18.774;2022-12-05T01:03:31;467.83;;;39.20;;
41043;SDS011;51680;49.806;18.774;2022-12-05T01:06:56;351.73;;;32.50;;
41043;SDS011;51680;49.806;18.774;2022-12-05T01:10:20;676.25;;;44.47;;
41043;SDS011;51680;49.806;18.774;2022-12-05T01:13:42;412.30;;;39.17;;
41043;SDS011;51680;49.806;18.774;2022-12-05T01:17:05;392.60;;;38.17;;
41043;SDS011;51680;49.806;18.774;2022-12-05T01:20:26;914.13;;;51.67;;
41043;SDS011;51680;49.806;18.774;2022-12-05T01:23:48;218.73;;;28.15;;
41043;SDS011;51680;49.806;18.774;2022-12-05T01:27:11;251.82;;;31.70;;
41043;SDS011;51680;49.806;18.774;2022-12-05T01:30:36;173.57;;;27.40;;
41043;SDS011;51680;49.806;18.774;2022-12-05T01:33:59;303.73;;;37.72;;
41043;SDS011;51680;49.806;18.774;2022-12-05T01:40:45;261.33;;;33.83;;
41043;SDS011;51680;49.806;18.774;2022-12-05T01:48:04;235.25;;;31.08;;
41043;SDS011;51680;49.806;18.774;2022-12-05T01:51:29;352.58;;;36.10;;
41043;SDS011;51680;49.806;18.774;2022-12-05T01:58:17;55.35;;;27.75;;
41043;SDS011;51680;49.806;18.774;2022-12-05T02:01:40;106.50;;;23.30;;
41043;SDS011;51680;49.806;18.774;2022-12-05T02:05:04;195.48;;;35.58;;
41043;SDS011;51680;49.806;18.774;2022-12-05T02:08:29;207.63;;;35.22;;
41043;SDS011;51680;49.806;18.774;2022-12-05T02:11:52;231.40;;;33.75;;
41043;SDS011;51680;49.806;18.774;2022-12-05T02:19:04;344.38;;;36.40;;
41043;SDS011;51680;49.806;18.774;2022-12-05T02:22:33;289.55;;;36.40;;
41043;SDS011;51680;49.806;18.774;2022-12-05T02:26:25;182.98;;;35.92;;
41043;SDS011;51680;49.806;18.774;2022-12-05T02:29:52;105.95;;;32.88;;
41043;SDS011;51680;49.806;18.774;2022-12-05T02:33:06;202.90;;;33.13;;
41043;SDS011;51680;49.806;18.774;2022-12-05T02:36:16;312.35;;;38.20;;
41043;SDS011;51680;49.806;18.774;2022-12-05T02:39:42;446.83;;;41.58;;
41043;SDS011;51680;49.806;18.774;2022-12-05T02:42:48;317.67;;;36.42;;
41043;SDS011;51680;49.806;18.774;2022-12-05T02:45:56;551.53;;;41.20;;
41043;SDS011;51680;49.806;18.774;2022-12-05T02:49:02;249.85;;;24.80;;
41043;SDS011;51680;49.806;18.774;2022-12-05T02:52:09;718.58;;;41.00;;
41043;SDS011;51680;49.806;18.774;2022-12-05T02:55:14;472.67;;;34.25;;
41043;SDS011;51680;49.806;18.774;2022-12-05T02:58:18;670.20;;;40.33;;
41043;SDS011;51680;49.806;18.774;2022-12-05T03:01:25;370.15;;;32.03;;
41043;SDS011;51680;49.806;18.774;2022-12-05T03:04:30;529.42;;;34.25;;
41043;SDS011;51680;49.806;18.774;2022-12-05T03:07:33;363.77;;;27.40;;
41043;SDS011;51680;49.806;18.774;2022-12-05T03:10:38;226.52;;;20.35;;
41043;SDS011;51680;49.806;18.774;2022-12-05T03:13:43;611.88;;;36.15;;
41043;SDS011;51680;49.806;18.774;2022-12-05T03:16:49;547.13;;;32.50;;
41043;SDS011;51680;49.806;18.774;2022-12-05T03:19:54;335.15;;;25.70;;
41043;SDS011;51680;49.806;18.774;2022-12-05T03:22:59;181.98;;;20.42;;
41043;SDS011;51680;49.806;18.774;2022-12-05T03:26:08;316.02;;;26.30;;
41043;SDS011;51680;49.806;18.774;2022-12-05T03:29:19;253.27;;;23.38;;
41043;SDS011;51680;49.806;18.774;2022-12-05T03:32:28;504.42;;;33.40;;
41043;SDS011;51680;49.806;18.774;2022-12-05T03:35:36;605.30;;;35.97;;
41043;SDS011;51680;49.806;18.774;2022-12-05T03:38:43;446.45;;;33.08;;
41043;SDS011;51680;49.806;18.774;2022-12-05T03:41:52;358.45;;;28.83;;
41043;SDS011;51680;49.806;18.774;2022-12-05T03:45:00;391.52;;;30.90;;
41043;SDS011;51680;49.806;18.774;2022-12-05T03:48:09;416.00;;;30.33;;
41043;SDS011;51680;49.806;18.774;2022-12-05T03:51:16;132.57;;;17.55;;
41043;SDS011;51680;49.806;18.774;2022-12-05T03:54:22;227.95;;;25.20;;
41043;SDS011;51680;49.806;18.774;2022-12-05T03:57:27;50.38;;;11.68;;
41043;SDS011;51680;49.806;18.774;2022-12-05T04:00:33;58.20;;;13.85;;
41043;SDS011;51680;49.806;18.774;2022-12-05T04:03:40;25.75;;;9.27;;
41043;SDS011;51680;49.806;18.774;2022-12-05T04:06:46;80.68;;;17.90;;
41043;SDS011;51680;49.806;18.774;2022-12-05T04:09:54;169.15;;;31.27;;
41043;SDS011;51680;49.806;18.774;2022-12-05T04:12:58;71.55;;;29.00;;
41043;SDS011;51680;49.806;18.774;2022-12-05T04:16:18;80.45;;;33.17;;
41043;SDS011;51680;49.806;18.774;2022-12-05T04:23:04;87.13;;;32.67;;
41043;SDS011;51680;49.806;18.774;2022-12-05T04:26:10;85.55;;;33.58;;
41043;SDS011;51680;49.806;18.774;2022-12-05T04:29:22;121.47;;;33.75;;
41043;SDS011;51680;49.806;18.774;2022-12-05T04:32:31;73.00;;;34.72;;
41043;SDS011;51680;49.806;18.774;2022-12-05T04:35:41;65.50;;;31.60;;
41043;SDS011;51680;49.806;18.774;2022-12-05T04:38:47;58.13;;;30.85;;
41043;SDS011;51680;49.806;18.774;2022-12-05T04:41:52;59.00;;;31.25;;
41043;SDS011;51680;49.806;18.774;2022-12-05T04:44:57;62.58;;;30.42;;
41043;SDS011;51680;49.806;18.774;2022-12-05T04:48:05;65.95;;;33.30;;
41043;SDS011;51680;49.806;18.774;2022-12-05T04:51:15;62.60;;;28.15;;
41043;SDS011;51680;49.806;18.774;2022-12-05T04:54:20;71.15;;;33.63;;
41043;SDS011;51680;49.806;18.774;2022-12-05T04:57:27;170.55;;;35.95;;
41043;SDS011;51680;49.806;18.774;2022-12-05T05:00:34;134.02;;;34.00;;
41043;SDS011;51680;49.806;18.774;2022-12-05T05:03:45;214.18;;;37.92;;
41043;SDS011;51680;49.806;18.774;2022-12-05T05:06:52;222.40;;;35.78;;
41043;SDS011;51680;49.806;18.774;2022-12-05T05:09:54;351.45;;;39.40;;
41043;SDS011;51680;49.806;18.774;2022-12-05T05:12:56;355.58;;;40.78;;
41043;SDS011;51680;49.806;18.774;2022-12-05T05:15:58;577.97;;;45.60;;
41043;SDS011;51680;49.806;18.774;2022-12-05T05:19:00;676.45;;;46.85;;
41043;SDS011;51680;49.806;18.774;2022-12-05T05:22:03;676.63;;;44.65;;
41043;SDS011;51680;49.806;18.774;2022-12-05T05:25:05;567.70;;;42.33;;
41043;SDS011;51680;49.806;18.774;2022-12-05T05:28:07;428.92;;;37.47;;
41043;SDS011;51680;49.806;18.774;2022-12-05T05:31:09;626.83;;;37.95;;
41043;SDS011;51680;49.806;18.774;2022-12-05T05:34:11;756.83;;;41.85;;
41043;SDS011;51680;49.806;18.774;2022-12-05T05:37:16;728.78;;;42.25;;
41043;SDS011;51680;49.806;18.774;2022-12-05T05:40:18;837.60;;;42.03;;
41043;SDS011;51680;49.806;18.774;2022-12-05T05:43:20;697.70;;;37.47;;
41043;SDS011;51680;49.806;18.774;2022-12-05T05:46:22;422.83;;;32.85;;
41043;SDS011;51680;49.806;18.774;2022-12-05T05:49:25;509.80;;;30.02;;
41043;SDS011;51680;49.806;18.774;2022-12-05T05:52:28;570.83;;;34.80;;
41043;SDS011;51680;49.806;18.774;2022-12-05T05:55:32;780.17;;;40.78;;
41043;SDS011;51680;49.806;18.774;2022-12-05T05:58:34;542.08;;;35.10;;
41043;SDS011;51680;49.806;18.774;2022-12-05T06:01:36;665.67;;;39.20;;
41043;SDS011;51680;49.806;18.774;2022-12-05T06:04:38;692.97;;;37.10;;
41043;SDS011;51680;49.806;18.774;2022-12-05T06:07:41;676.08;;;34.60;;
41043;SDS011;51680;49.806;18.774;2022-12-05T06:10:43;751.97;;;39.72;;
41043;SDS011;51680;49.806;18.774;2022-12-05T06:13:44;568.97;;;34.33;;
41043;SDS011;51680;49.806;18.774;2022-12-05T06:16:47;343.95;;;28.65;;
41043;SDS011;51680;49.806;18.774;2022-12-05T06:19:48;392.98;;;30.00;;
41043;SDS011;51680;49.806;18.774;2022-12-05T06:22:52;325.65;;;26.25;;
41043;SDS011;51680;49.806;18.774;2022-12-05T06:25:54;628.70;;;36.95;;
41043;SDS011;51680;49.806;18.774;2022-12-05T06:28:56;444.27;;;33.10;;
41043;SDS011;51680;49.806;18.774;2022-12-05T06:31:58;624.00;;;36.75;;
41043;SDS011;51680;49.806;18.774;2022-12-05T06:35:00;610.95;;;34.40;;
41043;SDS011;51680;49.806;18.774;2022-12-05T06:38:09;410.10;;;24.63;;
41043;SDS011;51680;49.806;18.774;2022-12-05T06:41:13;252.02;;;21.63;;
41043;SDS011;51680;49.806;18.774;2022-12-05T06:44:16;252.43;;;20.08;;
41043;SDS011;51680;49.806;18.774;2022-12-05T06:47:19;527.60;;;31.27;;
41043;SDS011;51680;49.806;18.774;2022-12-05T06:50:21;701.55;;;40.15;;
41043;SDS011;51680;49.806;18.774;2022-12-05T06:53:24;854.92;;;41.25;;
41043;SDS011;51680;49.806;18.774;2022-12-05T06:56:26;812.88;;;42.75;;
41043;SDS011;51680;49.806;18.774;2022-12-05T06:59:28;553.63;;;36.78;;
41043;SDS011;51680;49.806;18.774;2022-12-05T07:02:30;495.08;;;38.53;;
41043;SDS011;51680;49.806;18.774;2022-12-05T07:05:31;458.55;;;38.00;;
41043;SDS011;51680;49.806;18.774;2022-12-05T07:08:34;573.85;;;38.08;;
41043;SDS011;51680;49.806;18.774;2022-12-05T07:11:36;466.88;;;37.40;;
41043;SDS011;51680;49.806;18.774;2022-12-05T07:14:38;60.13;;;26.50;;
41043;SDS011;51680;49.806;18.774;2022-12-05T07:17:40;48.05;;;26.25;;
41043;SDS011;51680;49.806;18.774;2022-12-05T07:20:42;42.30;;;22.33;;
41043;SDS011;51680;49.806;18.774;2022-12-05T07:23:46;318.50;;;30.95;;
41043;SDS011;51680;49.806;18.774;2022-12-05T07:26:49;309.38;;;28.98;;
41043;SDS011;51680;49.806;18.774;2022-12-05T07:29:51;200.65;;;27.15;;
41043;SDS011;51680;49.806;18.774;2022-12-05T07:32:53;210.60;;;26.17;;
41043;SDS011;51680;49.806;18.774;2022-12-05T07:35:58;470.40;;;32.42;;
41043;SDS011;51680;49.806;18.774;2022-12-05T07:39:02;306.08;;;29.17;;
41043;SDS011;51680;49.806;18.774;2022-12-05T07:42:04;152.57;;;28.17;;
41043;SDS011;51680;49.806;18.774;2022-12-05T07:45:06;303.20;;;27.17;;
41043;SDS011;51680;49.806;18.774;2022-12-05T07:48:09;339.95;;;29.63;;
41043;SDS011;51680;49.806;18.774;2022-12-05T07:51:11;516.20;;;32.25;;
41043;SDS011;51680;49.806;18.774;2022-12-05T07:54:14;346.40;;;27.88;;
41043;SDS011;51680;49.806;18.774;2022-12-05T07:57:16;379.92;;;27.77;;
41043;SDS011;51680;49.806;18.774;2022-12-05T08:00:18;614.13;;;37.38;;
41043;SDS011;51680;49.806;18.774;2022-12-05T08:03:20;368.35;;;35.78;;
41043;SDS011;51680;49.806;18.774;2022-12-05T08:06:23;73.80;;;26.58;;
41043;SDS011;51680;49.806;18.774;2022-12-05T08:09:28;45.20;;;22.90;;
41043;SDS011;51680;49.806;18.774;2022-12-05T08:12:29;25.27;;;14.18;;
41043;SDS011;51680;49.806;18.774;2022-12-05T08:15:32;46.30;;;23.52;;
41043;SDS011;51680;49.806;18.774;2022-12-05T08:18:34;26.90;;;15.32;;
41043;SDS011;51680;49.806;18.774;2022-12-05T08:21:37;29.40;;;15.63;;
41043;SDS011;51680;49.806;18.774;2022-12-05T08:24:40;48.00;;;24.60;;
41043;SDS011;51680;49.806;18.774;2022-12-05T08:27:42;32.25;;;17.40;;
41043;SDS011;51680;49.806;18.774;2022-12-05T08:30:44;25.73;;;15.20;;
41043;SDS011;51680;49.806;18.774;2022-12-05T08:33:46;30.00;;;17.15;;
41043;SDS011;51680;49.806;18.774;2022-12-05T08:36:48;32.35;;;17.25;;
41043;SDS011;51680;49.806;18.774;2022-12-05T08:39:51;33.67;;;17.48;;
41043;SDS011;51680;49.806;18.774;2022-12-05T08:42:52;31.50;;;17.95;;
41043;SDS011;51680;49.806;18.774;2022-12-05T08:45:54;70.05;;;33.20;;
41043;SDS011;51680;49.806;18.774;2022-12-05T08:48:56;85.78;;;37.20;;
41043;SDS011;51680;49.806;18.774;2022-12-05T08:51:58;67.43;;;37.47;;
41043;SDS011;51680;49.806;18.774;2022-12-05T08:55:01;58.13;;;31.70;;
41043;SDS011;51680;49.806;18.774;2022-12-05T08:58:03;50.83;;;29.45;;
41043;SDS011;51680;49.806;18.774;2022-12-05T09:01:23;23.67;;;13.82;;
41043;SDS011;51680;49.806;18.774;2022-12-05T09:04:29;36.72;;;21.48;;
41043;SDS011;51680;49.806;18.774;2022-12-05T09:07:31;21.73;;;10.80;;
41043;SDS011;51680;49.806;18.774;2022-12-05T09:10:34;73.45;;;36.42;;
41043;SDS011;51680;49.806;18.774;2022-12-05T09:13:38;33.55;;;17.50;;
41043;SDS011;51680;49.806;18.774;2022-12-05T09:16:40;48.45;;;25.10;;
41043;SDS011;51680;49.806;18.774;2022-12-05T09:19:44;22.25;;;12.65;;
41043;SDS011;51680;49.806;18.774;2022-12-05T09:22:46;17.90;;;10.13;;
41043;SDS011;51680;49.806;18.774;2022-12-05T09:25:53;48.00;;;25.17;;
41043;SDS011;51680;49.806;18.774;2022-12-05T09:28:57;28.58;;;15.73;;
41043;SDS011;51680;49.806;18.774;2022-12-05T09:31:59;27.10;;;15.10;;
41043;SDS011;51680;49.806;18.774;2022-12-05T09:35:00;27.00;;;15.90;;
41043;SDS011;51680;49.806;18.774;2022-12-05T09:38:02;27.52;;;15.95;;
41043;SDS011;51680;49.806;18.774;2022-12-05T09:41:07;31.30;;;17.45;;
41043;SDS011;51680;49.806;18.774;2022-12-05T09:44:22;58.22;;;30.75;;
41043;SDS011;51680;49.806;18.774;2022-12-05T09:47:30;45.80;;;24.70;;
41043;SDS011;51680;49.806;18.774;2022-12-05T09:50:39;24.95;;;14.93;;
41043;SDS011;51680;49.806;18.774;2022-12-05T09:53:44;44.35;;;24.85;;
41043;SDS011;51680;49.806;18.774;2022-12-05T09:56:49;66.85;;;33.60;;
41043;SDS011;51680;49.806;18.774;2022-12-05T09:59:52;70.68;;;38.58;;
41043;SDS011;51680;49.806;18.774;2022-12-05T10:02:56;57.03;;;32.92;;
41043;SDS011;51680;49.806;18.774;2022-12-05T10:06:07;53.30;;;31.40;;
41043;SDS011;51680;49.806;18.774;2022-12-05T10:09:20;36.00;;;19.75;;
41043;SDS011;51680;49.806;18.774;2022-12-05T10:12:46;36.00;;;20.85;;
41043;SDS011;51680;49.806;18.774;2022-12-05T10:15:59;28.73;;;16.27;;
41043;SDS011;51680;49.806;18.774;2022-12-05T10:19:09;20.60;;;12.68;;
41043;SDS011;51680;49.806;18.774;2022-12-05T10:22:17;27.40;;;15.05;;
41043;SDS011;51680;49.806;18.774;2022-12-05T10:25:23;27.13;;;15.57;;
41043;SDS011;51680;49.806;18.774;2022-12-05T10:28:30;31.33;;;16.33;;
41043;SDS011;51680;49.806;18.774;2022-12-05T10:31:36;29.98;;;15.30;;
41043;SDS011;51680;49.806;18.774;2022-12-05T10:34:41;28.42;;;15.93;;
41043;SDS011;51680;49.806;18.774;2022-12-05T10:37:45;21.10;;;11.77;;
41043;SDS011;51680;49.806;18.774;2022-12-05T10:40:49;23.38;;;12.23;;
41043;SDS011;51680;49.806;18.774;2022-12-05T10:43:54;21.17;;;11.10;;
41043;SDS011;51680;49.806;18.774;2022-12-05T10:46:58;17.98;;;10.05;;
41043;SDS011;51680;49.806;18.774;2022-12-05T10:50:03;55.80;;;31.92;;
41043;SDS011;51680;49.806;18.774;2022-12-05T10:53:06;52.17;;;30.75;;
41043;SDS011;51680;49.806;18.774;2022-12-05T10:59:45;58.00;;;35.17;;
41043;SDS011;51680;49.806;18.774;2022-12-05T11:02:48;68.05;;;38.88;;
41043;SDS011;51680;49.806;18.774;2022-12-05T11:05:50;69.15;;;39.72;;
41043;SDS011;51680;49.806;18.774;2022-12-05T11:08:54;73.30;;;39.63;;
41043;SDS011;51680;49.806;18.774;2022-12-05T11:12:17;74.55;;;41.78;;
41043;SDS011;51680;49.806;18.774;2022-12-05T11:15:23;74.25;;;42.08;;
41043;SDS011;51680;49.806;18.774;2022-12-05T11:18:29;78.15;;;44.53;;
41043;SDS011;51680;49.806;18.774;2022-12-05T11:21:40;81.57;;;42.78;;
41043;SDS011;51680;49.806;18.774;2022-12-05T11:24:42;83.20;;;43.65;;
41043;SDS011;51680;49.806;18.774;2022-12-05T11:27:44;75.05;;;41.47;;
41043;SDS011;51680;49.806;18.774;2022-12-05T11:30:54;80.47;;;43.03;;
41043;SDS011;51680;49.806;18.774;2022-12-05T11:34:00;89.88;;;43.92;;
41043;SDS011;51680;49.806;18.774;2022-12-05T11:37:05;83.72;;;41.25;;
41043;SDS011;51680;49.806;18.774;2022-12-05T11:40:14;110.15;;;43.50;;
41043;SDS011;51680;49.806;18.774;2022-12-05T11:43:23;80.35;;;41.45;;
41043;SDS011;51680;49.806;18.774;2022-12-05T11:46:44;72.07;;;38.67;;
41043;SDS011;51680;49.806;18.774;2022-12-05T11:49:59;74.05;;;38.30;;
41043;SDS011;51680;49.806;18.774;2022-12-05T11:53:18;67.88;;;35.38;;
41043;SDS011;51680;49.806;18.774;2022-12-05T11:56:35;57.83;;;31.65;;
41043;SDS011;51680;49.806;18.774;2022-12-05T11:59:43;62.03;;;33.40;;
41043;SDS011;51680;49.806;18.774;2022-12-05T12:06:32;57.88;;;31.73;;
41043;SDS011;51680;49.806;18.774;2022-12-05T12:09:47;54.67;;;29.98;;
41043;SDS011;51680;49.806;18.774;2022-12-05T12:12:58;54.65;;;30.60;;
41043;SDS011;51680;49.806;18.774;2022-12-05T12:16:12;62.80;;;35.70;;
41043;SDS011;51680;49.806;18.774;2022-12-05T12:19:24;69.97;;;40.55;;
41043;SDS011;51680;49.806;18.774;2022-12-05T12:23:05;67.20;;;36.03;;
41043;SDS011;51680;49.806;18.774;2022-12-05T12:26:21;71.35;;;38.78;;
41043;SDS011;51680;49.806;18.774;2022-12-05T12:29:34;72.00;;;35.65;;
41043;SDS011;51680;49.806;18.774;2022-12-05T12:32:49;76.22;;;40.65;;
41043;SDS011;51680;49.806;18.774;2022-12-05T12:36:01;73.97;;;37.45;;
41043;SDS011;51680;49.806;18.774;2022-12-05T12:39:18;72.03;;;38.70;;
41043;SDS011;51680;49.806;18.774;2022-12-05T12:42:31;78.50;;;39.80;;
41043;SDS011;51680;49.806;18.774;2022-12-05T12:45:47;79.82;;;40.50;;
41043;SDS011;51680;49.806;18.774;2022-12-05T12:49:01;84.05;;;42.53;;
41043;SDS011;51680;49.806;18.774;2022-12-05T12:52:13;85.85;;;42.53;;
41043;SDS011;51680;49.806;18.774;2022-12-05T12:55:18;75.70;;;38.33;;
41043;SDS011;51680;49.806;18.774;2022-12-05T12:58:30;76.05;;;38.42;;
41043;SDS011;51680;49.806;18.774;2022-12-05T13:01:44;73.30;;;37.10;;
41043;SDS011;51680;49.806;18.774;2022-12-05T13:04:51;73.30;;;39.33;;
41043;SDS011;51680;49.806;18.774;2022-12-05T13:07:58;79.93;;;40.90;;
41043;SDS011;51680;49.806;18.774;2022-12-05T13:11:06;78.28;;;39.95;;
41043;SDS011;51680;49.806;18.774;2022-12-05T13:14:12;79.60;;;40.08;;
41043;SDS011;51680;49.806;18.774;2022-12-05T13:17:18;96.28;;;41.63;;
41043;SDS011;51680;49.806;18.774;2022-12-05T13:20:22;82.93;;;41.10;;
41043;SDS011;51680;49.806;18.774;2022-12-05T13:23:31;86.50;;;42.25;;
41043;SDS011;51680;49.806;18.774;2022-12-05T13:26:36;83.43;;;43.92;;
41043;SDS011;51680;49.806;18.774;2022-12-05T13:29:47;95.55;;;44.63;;
41043;SDS011;51680;49.806;18.774;2022-12-05T13:32:54;87.90;;;46.92;;
41043;SDS011;51680;49.806;18.774;2022-12-05T13:36:02;84.60;;;43.78;;
41043;SDS011;51680;49.806;18.774;2022-12-05T13:39:25;86.47;;;44.33;;
41043;SDS011;51680;49.806;18.774;2022-12-05T13:42:45;87.80;;;43.92;;
41043;SDS011;51680;49.806;18.774;2022-12-05T13:45:54;92.80;;;44.28;;
41043;SDS011;51680;49.806;18.774;2022-12-05T13:49:03;93.10;;;45.42;;
41043;SDS011;51680;49.806;18.774;2022-12-05T13:52:15;100.32;;;48.60;;
41043;SDS011;51680;49.806;18.774;2022-12-05T13:55:25;103.10;;;49.13;;
41043;SDS011;51680;49.806;18.774;2022-12-05T13:58:49;99.68;;;46.92;;
41043;SDS011;51680;49.806;18.774;2022-12-05T14:01:52;99.82;;;47.25;;
41043;SDS011;51680;49.806;18.774;2022-12-05T14:04:54;75.47;;;38.72;;
41043;SDS011;51680;49.806;18.774;2022-12-05T14:07:56;81.18;;;37.53;;
41043;SDS011;51680;49.806;18.774;2022-12-05T14:11:10;76.25;;;38.50;;
41043;SDS011;51680;49.806;18.774;2022-12-05T14:14:12;71.15;;;34.90;;
41043;SDS011;51680;49.806;18.774;2022-12-05T14:17:14;71.40;;;36.05;;
41043;SDS011;51680;49.806;18.774;2022-12-05T14:20:18;69.47;;;36.70;;
41043;SDS011;51680;49.806;18.774;2022-12-05T14:23:38;67.07;;;34.90;;
41043;SDS011;51680;49.806;18.774;2022-12-05T14:26:53;68.80;;;34.60;;
41043;SDS011;51680;49.806;18.774;2022-12-05T14:30:12;61.05;;;31.73;;
41043;SDS011;51680;49.806;18.774;2022-12-05T14:33:21;64.18;;;34.00;;
41043;SDS011;51680;49.806;18.774;2022-12-05T14:36:23;69.45;;;34.53;;
41043;SDS011;51680;49.806;18.774;2022-12-05T14:39:35;70.53;;;35.72;;
41043;SDS011;51680;49.806;18.774;2022-12-05T14:42:41;66.68;;;32.35;;
41043;SDS011;51680;49.806;18.774;2022-12-05T14:45:55;70.03;;;35.60;;
41043;SDS011;51680;49.806;18.774;2022-12-05T14:52:35;64.60;;;33.42;;
41043;SDS011;51680;49.806;18.774;2022-12-05T14:55:40;71.07;;;35.90;;
41043;SDS011;51680;49.806;18.774;2022-12-05T14:58:45;74.07;;;38.42;;
41043;SDS011;51680;49.806;18.774;2022-12-05T15:01:53;75.20;;;38.33;;
41043;SDS011;51680;49.806;18.774;2022-12-05T15:04:57;75.75;;;39.45;;
41043;SDS011;51680;49.806;18.774;2022-12-05T15:08:04;80.90;;;40.05;;
41043;SDS011;51680;49.806;18.774;2022-12-05T15:11:06;87.82;;;40.08;;
41043;SDS011;51680;49.806;18.774;2022-12-05T15:14:14;81.80;;;38.83;;
41043;SDS011;51680;49.806;18.774;2022-12-05T15:17:21;82.85;;;39.53;;
41043;SDS011;51680;49.806;18.774;2022-12-05T15:20:29;71.68;;;35.92;;
41043;SDS011;51680;49.806;18.774;2022-12-05T15:23:40;82.75;;;40.45;;
41043;SDS011;51680;49.806;18.774;2022-12-05T15:26:44;68.97;;;34.92;;
41043;SDS011;51680;49.806;18.774;2022-12-05T15:29:51;66.68;;;34.50;;
41043;SDS011;51680;49.806;18.774;2022-12-05T15:32:55;62.50;;;32.65;;
41043;SDS011;51680;49.806;18.774;2022-12-05T15:35:57;65.75;;;32.92;;
41043;SDS011;51680;49.806;18.774;2022-12-05T15:39:02;62.67;;;32.45;;
41043;SDS011;51680;49.806;18.774;2022-12-05T15:42:08;66.93;;;34.13;;
41043;SDS011;51680;49.806;18.774;2022-12-05T15:45:23;66.97;;;34.45;;
41043;SDS011;51680;49.806;18.774;2022-12-05T15:48:27;70.47;;;34.08;;
41043;SDS011;51680;49.806;18.774;2022-12-05T15:51:30;70.82;;;37.00;;
41043;SDS011;51680;49.806;18.774;2022-12-05T15:54:35;79.35;;;39.90;;
41043;SDS011;51680;49.806;18.774;2022-12-05T15:57:40;73.45;;;36.58;;
41043;SDS011;51680;49.806;18.774;2022-12-05T16:00:46;78.25;;;37.95;;
41043;SDS011;51680;49.806;18.774;2022-12-05T16:03:51;79.53;;;39.28;;
41043;SDS011;51680;49.806;18.774;2022-12-05T16:06:56;72.82;;;37.78;;
41043;SDS011;51680;49.806;18.774;2022-12-05T16:10:01;71.18;;;35.25;;
41043;SDS011;51680;49.806;18.774;2022-12-05T16:13:03;79.78;;;39.47;;
41043;SDS011;51680;49.806;18.774;2022-12-05T16:16:09;72.22;;;38.38;;
41043;SDS011;51680;49.806;18.774;2022-12-05T16:19:17;80.75;;;41.50;;
41043;SDS011;51680;49.806;18.774;2022-12-05T16:22:23;117.15;;;57.58;;
41043;SDS011;51680;49.806;18.774;2022-12-05T16:25:28;89.22;;;45.42;;
41043;SDS011;51680;49.806;18.774;2022-12-05T16:28:33;70.70;;;38.35;;
41043;SDS011;51680;49.806;18.774;2022-12-05T16:31:43;65.13;;;35.67;;
41043;SDS011;51680;49.806;18.774;2022-12-05T16:34:45;69.43;;;36.58;;
41043;SDS011;51680;49.806;18.774;2022-12-05T16:37:47;64.72;;;32.90;;
41043;SDS011;51680;49.806;18.774;2022-12-05T16:40:53;45.60;;;25.85;;
41043;SDS011;51680;49.806;18.774;2022-12-05T16:43:56;47.85;;;25.65;;
41043;SDS011;51680;49.806;18.774;2022-12-05T16:46:59;55.63;;;29.83;;
41043;SDS011;51680;49.806;18.774;2022-12-05T16:53:30;70.03;;;34.25;;
41043;SDS011;51680;49.806;18.774;2022-12-05T16:56:32;71.85;;;35.65;;
41043;SDS011;51680;49.806;18.774;2022-12-05T16:59:35;62.97;;;33.58;;
41043;SDS011;51680;49.806;18.774;2022-12-05T17:02:39;55.72;;;29.60;;
41043;SDS011;51680;49.806;18.774;2022-12-05T17:06:00;59.78;;;30.95;;
41043;SDS011;51680;49.806;18.774;2022-12-05T17:09:02;50.30;;;27.80;;
41043;SDS011;51680;49.806;18.774;2022-12-05T17:12:04;53.63;;;29.27;;
41043;SDS011;51680;49.806;18.774;2022-12-05T17:15:12;56.67;;;31.20;;
41043;SDS011;51680;49.806;18.774;2022-12-05T17:18:19;60.88;;;31.63;;
41043;SDS011;51680;49.806;18.774;2022-12-05T17:21:22;62.67;;;32.50;;
41043;SDS011;51680;49.806;18.774;2022-12-05T17:24:26;59.63;;;32.90;;
41043;SDS011;51680;49.806;18.774;2022-12-05T17:27:28;60.38;;;32.28;;
41043;SDS011;51680;49.806;18.774;2022-12-05T17:30:30;61.13;;;34.03;;
41043;SDS011;51680;49.806;18.774;2022-12-05T17:33:34;58.97;;;33.80;;
41043;SDS011;51680;49.806;18.774;2022-12-05T17:36:36;57.77;;;32.37;;
41043;SDS011;51680;49.806;18.774;2022-12-05T17:39:38;59.30;;;32.22;;
41043;SDS011;51680;49.806;18.774;2022-12-05T17:42:39;56.55;;;29.77;;
41043;SDS011;51680;49.806;18.774;2022-12-05T17:45:42;62.28;;;32.20;;
41043;SDS011;51680;49.806;18.774;2022-12-05T17:49:05;68.50;;;35.75;;
41043;SDS011;51680;49.806;18.774;2022-12-05T17:52:07;66.17;;;34.10;;
41043;SDS011;51680;49.806;18.774;2022-12-05T17:55:12;58.75;;;34.53;;
41043;SDS011;51680;49.806;18.774;2022-12-05T17:58:16;64.15;;;34.33;;
41043;SDS011;51680;49.806;18.774;2022-12-05T18:01:18;69.93;;;35.60;;
41043;SDS011;51680;49.806;18.774;2022-12-05T18:04:22;67.88;;;36.80;;
41043;SDS011;51680;49.806;18.774;2022-12-05T18:07:23;67.20;;;37.42;;
41043;SDS011;51680;49.806;18.774;2022-12-05T18:10:25;62.25;;;33.88;;
41043;SDS011;51680;49.806;18.774;2022-12-05T18:13:27;67.57;;;33.17;;
41043;SDS011;51680;49.806;18.774;2022-12-05T18:19:34;86.03;;;42.53;;
41043;SDS011;51680;49.806;18.774;2022-12-05T18:22:37;87.45;;;45.72;;
41043;SDS011;51680;49.806;18.774;2022-12-05T18:25:42;90.55;;;46.25;;
41043;SDS011;51680;49.806;18.774;2022-12-05T18:28:46;85.97;;;45.20;;
41043;SDS011;51680;49.806;18.774;2022-12-05T18:31:47;80.90;;;40.80;;
41043;SDS011;51680;49.806;18.774;2022-12-05T18:34:51;77.88;;;40.90;;
41043;SDS011;51680;49.806;18.774;2022-12-05T18:37:53;83.75;;;41.50;;